Time;durP1;ratioP1;P1;durP2;ratioP2;P2;SDS_P1;SDS_P2;PMS_P1;PMS_P2;Temp;Humidity;BMP_temperature;BMP_pressure;BME280_temperature;BME280_humidity;BME280_pressure;Samples;Min_cycle;Max_cycle;Signal;HPM_P1;HPM_P2
2022/02/24 00:00:28;;;;;;;22.60;9.45;;;23.60;36.10;;;;;;6124385;28;80957;-65
2022/02/24 00:03:30;;;;;;;21.70;8.90;;;23.60;36.10;;;;;;6132188;28;80655;-65
2022/02/24 00:06:30;;;;;;;25.73;9.80;;;23.60;36.00;;;;;;6138882;28;81085;-65
2022/02/24 00:09:31;;;;;;;21.73;8.55;;;23.60;36.10;;;;;;6149866;28;87526;-65
2022/02/24 00:12:31;;;;;;;19.75;10.15;;;23.60;36.10;;;;;;6152955;28;80352;-65
2022/02/24 00:15:32;;;;;;;17.83;8.65;;;23.60;35.90;;;;;;6151480;28;84664;-64
2022/02/24 00:18:32;;;;;;;18.85;8.90;;;23.50;35.90;;;;;;6153990;28;82987;-64
2022/02/24 00:21:33;;;;;;;20.20;9.82;;;23.50;36.50;;;;;;6142270;28;80419;-65
2022/02/24 00:24:33;;;;;;;16.95;8.80;;;23.50;35.90;;;;;;6156871;28;80607;-65
2022/02/24 00:27:34;;;;;;;18.42;8.45;;;23.50;35.80;;;;;;6138353;28;80920;-65
2022/02/24 00:30:35;;;;;;;21.75;9.07;;;23.50;35.80;;;;;;6138886;28;83051;-65
2022/02/24 00:33:36;;;;;;;23.08;9.60;;;23.50;35.90;;;;;;6140083;28;84190;-64
2022/02/24 00:36:36;;;;;;;20.30;9.32;;;23.50;35.80;;;;;;6151842;28;81353;-63
2022/02/24 00:39:37;;;;;;;22.90;9.30;;;23.50;35.90;;;;;;6130784;28;81112;-63
2022/02/24 00:42:38;;;;;;;20.95;9.30;;;23.50;35.80;;;;;;6153530;28;80676;-63
2022/02/24 00:45:38;;;;;;;19.38;8.88;;;23.50;35.90;;;;;;6143577;28;80211;-63
2022/02/24 00:48:39;;;;;;;19.67;8.52;;;23.50;35.90;;;;;;6154939;28;80656;-63
2022/02/24 00:51:40;;;;;;;21.60;9.77;;;23.50;35.90;;;;;;6147980;28;80648;-63
2022/02/24 00:54:40;;;;;;;21.73;9.30;;;23.50;35.80;;;;;;6126676;28;80838;-63
2022/02/24 00:57:41;;;;;;;21.73;8.93;;;23.40;35.80;;;;;;6144763;28;80099;-63
2022/02/24 01:00:41;;;;;;;17.08;7.93;;;23.40;35.90;;;;;;6135195;28;80430;-64
2022/02/24 01:03:42;;;;;;;22.10;8.98;;;23.40;36.00;;;;;;6155067;28;80601;-64
2022/02/24 01:06:42;;;;;;;19.23;9.25;;;23.40;35.90;;;;;;6144001;28;81248;-64
2022/02/24 01:09:43;;;;;;;18.48;8.68;;;23.40;35.90;;;;;;6147660;28;82736;-63
2022/02/24 01:12:43;;;;;;;19.58;8.82;;;23.40;35.90;;;;;;6120152;28;81019;-63
2022/02/24 01:15:44;;;;;;;19.40;9.57;;;23.40;35.90;;;;;;6127407;28;80428;-63
2022/02/24 01:18:45;;;;;;;22.98;9.75;;;23.40;35.80;;;;;;6137610;28;81521;-63
2022/02/24 01:21:45;;;;;;;18.17;8.27;;;23.40;35.80;;;;;;6153725;28;80909;-63
2022/02/24 01:24:46;;;;;;;21.33;8.43;;;23.40;35.90;;;;;;6132825;28;81697;-63
2022/02/24 01:27:46;;;;;;;19.83;8.88;;;23.40;35.80;;;;;;6152958;28;80865;-62
2022/02/24 01:30:47;;;;;;;18.70;8.60;;;23.30;35.60;;;;;;6153602;28;80518;-63
2022/02/24 01:33:47;;;;;;;18.33;8.38;;;23.30;35.50;;;;;;6154769;28;80231;-64
2022/02/24 01:36:48;;;;;;;19.02;9.43;;;23.30;35.60;;;;;;6152554;28;80694;-64
2022/02/24 01:39:48;;;;;;;18.70;8.43;;;23.30;35.70;;;;;;6135023;28;81519;-64
2022/02/24 01:42:49;;;;;;;19.00;8.18;;;23.30;35.70;;;;;;6144786;28;82477;-64
2022/02/24 01:45:49;;;;;;;17.48;7.90;;;23.30;35.60;;;;;;6149212;28;80546;-64
2022/02/24 01:48:50;;;;;;;19.30;8.77;;;23.30;35.60;;;;;;6150726;28;80587;-64
2022/02/24 01:51:51;;;;;;;18.92;8.82;;;23.30;35.60;;;;;;6130437;28;80593;-64
2022/02/24 01:54:51;;;;;;;19.95;9.23;;;23.30;35.60;;;;;;6131015;28;83713;-64
2022/02/24 01:57:52;;;;;;;18.02;8.00;;;23.20;35.60;;;;;;6128616;28;82039;-64
2022/02/24 02:00:53;;;;;;;18.63;8.02;;;23.30;35.60;;;;;;6130550;28;83129;-65
2022/02/24 02:03:54;;;;;;;21.17;9.40;;;23.30;35.60;;;;;;6129357;28;80564;-65
2022/02/24 02:06:55;;;;;;;18.67;7.88;;;23.20;35.60;;;;;;6121353;28;83038;-64
2022/02/24 02:09:55;;;;;;;17.02;7.88;;;23.20;35.70;;;;;;6121577;28;81668;-64
2022/02/24 02:12:56;;;;;;;18.92;7.97;;;23.20;36.30;;;;;;6128239;28;81719;-64
2022/02/24 02:15:57;;;;;;;16.80;7.50;;;23.20;35.60;;;;;;6132970;28;80621;-64
2022/02/24 02:18:57;;;;;;;18.15;8.20;;;23.20;35.50;;;;;;6148256;28;81930;-63
2022/02/24 02:21:58;;;;;;;15.95;7.55;;;23.20;35.60;;;;;;6142481;28;80564;-64
2022/02/24 02:24:58;;;;;;;18.30;8.20;;;23.20;35.70;;;;;;6144105;28;80749;-64
2022/02/24 02:28:00;;;;;;;20.35;8.68;;;23.20;35.60;;;;;;6136618;28;80311;-64
2022/02/24 02:31:00;;;;;;;18.60;7.97;;;23.20;35.60;;;;;;6121919;28;81228;-63
2022/02/24 02:34:01;;;;;;;18.65;8.50;;;23.20;35.60;;;;;;6133888;28;80832;-64
2022/02/24 02:37:02;;;;;;;18.90;8.25;;;23.20;35.60;;;;;;6136372;28;80834;-63
2022/02/24 02:40:02;;;;;;;18.75;8.10;;;23.20;35.50;;;;;;6140024;28;80923;-64
2022/02/24 02:43:03;;;;;;;17.25;7.72;;;23.20;35.50;;;;;;6151520;28;80323;-63
2022/02/24 02:46:04;;;;;;;16.88;7.97;;;23.20;35.60;;;;;;6133700;28;83223;-64
2022/02/24 02:49:04;;;;;;;17.15;7.45;;;23.20;35.70;;;;;;6145334;28;81116;-64
2022/02/24 02:52:05;;;;;;;17.85;6.95;;;23.20;35.60;;;;;;6133690;28;80519;-64
2022/02/24 02:55:06;;;;;;;17.75;7.70;;;23.20;35.60;;;;;;6138007;28;80442;-63
2022/02/24 02:58:06;;;;;;;15.85;6.75;;;23.20;35.60;;;;;;6149098;28;80819;-64
2022/02/24 03:01:07;;;;;;;14.60;6.43;;;23.20;35.60;;;;;;6137545;28;80382;-64
2022/02/24 03:04:07;;;;;;;13.23;6.70;;;23.20;35.60;;;;;;6152194;28;80424;-64
2022/02/24 03:07:08;;;;;;;11.55;6.35;;;23.10;36.40;;;;;;6142956;28;80864;-64
2022/02/24 03:10:08;;;;;;;14.68;6.68;;;23.10;36.90;;;;;;6118936;28;80607;-62
2022/02/24 03:13:09;;;;;;;13.20;6.75;;;23.10;36.90;;;;;;6153215;28;80441;-62
2022/02/24 03:16:09;;;;;;;12.32;5.82;;;23.20;37.50;;;;;;6139243;28;81941;-62
2022/02/24 03:19:11;;;;;;;11.38;5.75;;;23.20;37.00;;;;;;6152221;28;80509;-62
2022/02/24 03:22:11;;;;;;;12.35;5.53;;;23.20;37.10;;;;;;6134522;28;81294;-62
2022/02/24 03:25:12;;;;;;;13.38;5.85;;;23.20;37.20;;;;;;6133791;28;80611;-62
2022/02/24 03:28:12;;;;;;;14.48;5.63;;;23.20;37.40;;;;;;6138335;28;83048;-62
2022/02/24 03:31:13;;;;;;;15.52;6.20;;;23.20;37.10;;;;;;6156299;28;80529;-62
2022/02/24 03:34:14;;;;;;;14.63;6.07;;;23.20;37.20;;;;;;6142361;28;81491;-62
2022/02/24 03:37:15;;;;;;;16.80;7.13;;;23.20;37.10;;;;;;6142904;28;80670;-62
2022/02/24 03:40:15;;;;;;;16.08;6.50;;;23.20;37.10;;;;;;6135196;28;81444;-63
2022/02/24 03:43:16;;;;;;;10.27;5.63;;;23.20;37.10;;;;;;6147325;28;80483;-62
2022/02/24 03:46:16;;;;;;;11.85;5.40;;;23.20;37.20;;;;;;6135065;28;80911;-62
2022/02/24 03:49:17;;;;;;;11.32;5.13;;;23.20;37.10;;;;;;6122355;28;80604;-62
2022/02/24 03:52:17;;;;;;;12.60;5.32;;;23.20;37.20;;;;;;6126159;28;82042;-63
2022/02/24 03:55:18;;;;;;;12.02;5.28;;;23.20;37.00;;;;;;6134907;28;80752;-62
2022/02/24 03:58:18;;;;;;;10.63;5.35;;;23.20;37.10;;;;;;6134509;28;81112;-63
2022/02/24 04:01:19;;;;;;;11.13;5.32;;;23.20;37.00;;;;;;6127166;28;81194;-62
2022/02/24 04:04:19;;;;;;;12.13;5.25;;;23.20;37.00;;;;;;6126649;28;83224;-63
2022/02/24 04:07:20;;;;;;;14.65;5.20;;;23.20;37.10;;;;;;6132097;28;82073;-62
2022/02/24 04:10:20;;;;;;;11.27;5.47;;;23.20;37.00;;;;;;6136047;28;81701;-62
2022/02/24 04:13:21;;;;;;;13.90;5.82;;;23.20;37.10;;;;;;6132150;28;80872;-62
2022/02/24 04:16:22;;;;;;;14.75;5.65;;;23.20;36.90;;;;;;6134810;28;80818;-63
2022/02/24 04:19:24;;;;;;;9.77;4.40;;;23.30;37.30;;;;;;6151191;28;80348;-62
2022/02/24 04:22:25;;;;;;;11.43;4.80;;;23.30;37.00;;;;;;6151125;28;80219;-62
2022/02/24 04:25:25;;;;;;;12.02;5.10;;;23.30;36.50;;;;;;6141461;28;81075;-62
2022/02/24 04:28:26;;;;;;;9.88;4.82;;;23.30;36.20;;;;;;6123739;28;80210;-63
2022/02/24 04:31:26;;;;;;;11.75;5.68;;;23.40;35.90;;;;;;6149656;28;83479;-63
2022/02/24 04:34:27;;;;;;;11.95;5.70;;;23.40;35.50;;;;;;6132925;28;80764;-63
2022/02/24 04:37:27;;;;;;;9.57;5.35;;;23.40;35.20;;;;;;6135311;28;83416;-63
2022/02/24 04:40:28;;;;;;;12.35;5.55;;;23.50;35.00;;;;;;6138461;28;81538;-63
2022/02/24 04:43:28;;;;;;;11.60;4.85;;;23.50;34.90;;;;;;6145073;28;82096;-63
2022/02/24 04:46:31;;;;;;;11.90;5.10;;;23.50;34.70;;;;;;6140783;28;80901;-63
2022/02/24 04:49:32;;;;;;;11.57;4.90;;;23.60;34.80;;;;;;6144175;28;81826;-63
2022/02/24 04:52:32;;;;;;;13.55;6.05;;;23.60;34.80;;;;;;6140517;28;80765;-63
2022/02/24 04:55:33;;;;;;;9.55;4.53;;;23.60;34.90;;;;;;6143453;28;80419;-63
2022/02/24 04:58:33;;;;;;;11.73;5.25;;;23.70;35.10;;;;;;6152830;28;81467;-62
2022/02/24 05:01:34;;;;;;;9.90;4.90;;;23.70;35.00;;;;;;6135586;28;80462;-64
2022/02/24 05:04:35;;;;;;;13.20;4.80;;;23.70;35.10;;;;;;6136927;28;80257;-64
2022/02/24 05:07:35;;;;;;;7.88;4.40;;;23.70;35.00;;;;;;6153147;28;82137;-64
2022/02/24 05:10:36;;;;;;;8.68;4.80;;;23.70;35.00;;;;;;6132445;28;81051;-64
2022/02/24 05:13:36;;;;;;;8.32;4.55;;;23.70;34.90;;;;;;6137645;28;80352;-63
2022/02/24 05:16:37;;;;;;;10.40;4.53;;;23.70;34.70;;;;;;6133852;28;80416;-63
2022/02/24 05:19:37;;;;;;;11.55;5.40;;;23.80;34.70;;;;;;6154473;28;80479;-64
2022/02/24 05:22:40;;;;;;;10.48;4.70;;;23.80;34.40;;;;;;6143893;28;80661;-65
2022/02/24 05:25:40;;;;;;;13.20;5.30;;;23.80;35.00;;;;;;6152508;28;81014;-65
2022/02/24 05:28:41;;;;;;;9.73;4.93;;;23.80;34.00;;;;;;6154139;28;80496;-65
2022/02/24 05:31:41;;;;;;;10.23;4.78;;;23.80;33.90;;;;;;6152690;28;80504;-65
2022/02/24 05:34:42;;;;;;;11.40;5.50;;;23.80;33.80;;;;;;6145477;28;80678;-65
2022/02/24 05:37:42;;;;;;;11.45;5.38;;;23.80;33.60;;;;;;6140033;28;80617;-65
2022/02/24 05:40:43;;;;;;;11.40;5.35;;;23.80;33.70;;;;;;6135362;28;81397;-66
2022/02/24 05:43:43;;;;;;;13.52;6.20;;;23.80;33.50;;;;;;6135817;28;80541;-63
2022/02/24 05:46:44;;;;;;;13.80;6.22;;;23.80;33.30;;;;;;6127658;28;82036;-63
2022/02/24 05:49:44;;;;;;;10.45;5.13;;;23.80;34.40;;;;;;6129442;28;82645;-64
2022/02/24 05:52:45;;;;;;;10.70;4.97;;;23.80;33.60;;;;;;6134763;28;81437;-64
2022/02/24 05:55:45;;;;;;;9.05;5.30;;;23.80;34.20;;;;;;6132051;28;80384;-63
2022/02/24 05:58:46;;;;;;;13.30;5.82;;;23.80;34.40;;;;;;6133802;28;81344;-63
2022/02/24 06:01:46;;;;;;;9.13;4.70;;;23.80;34.30;;;;;;6135552;28;81211;-62
2022/02/24 06:04:47;;;;;;;11.25;4.65;;;23.70;34.20;;;;;;6149949;28;80427;-63
2022/02/24 06:07:48;;;;;;;17.33;5.97;;;23.70;35.00;;;;;;6141674;28;81995;-63
2022/02/24 06:10:48;;;;;;;10.07;4.63;;;23.70;33.60;;;;;;6147224;28;81282;-60
2022/02/24 06:13:49;;;;;;;13.23;5.53;;;23.70;34.00;;;;;;6137002;28;80799;-63
2022/02/24 06:16:49;;;;;;;10.50;5.10;;;23.70;34.10;;;;;;6136147;28;81829;-61
2022/02/24 06:19:50;;;;;;;11.80;5.20;;;23.70;35.00;;;;;;6130699;28;80880;-63
2022/02/24 06:22:50;;;;;;;10.65;5.03;;;23.70;35.30;;;;;;6148488;28;80410;-62
2022/02/24 06:25:51;;;;;;;9.50;4.60;;;23.70;34.90;;;;;;6141545;28;80493;-63
2022/02/24 06:28:52;;;;;;;12.07;4.85;;;23.70;35.00;;;;;;6134925;28;80591;-62
2022/02/24 06:31:53;;;;;;;12.80;5.22;;;23.70;35.10;;;;;;6128962;28;81331;-61
2022/02/24 06:34:54;;;;;;;12.30;5.00;;;23.70;35.30;;;;;;6129271;28;81151;-62
2022/02/24 06:37:54;;;;;;;10.48;4.47;;;23.70;35.30;;;;;;6122626;28;80503;-62
2022/02/24 06:40:55;;;;;;;10.68;4.75;;;23.70;35.70;;;;;;6141402;28;80853;-63
2022/02/24 06:43:56;;;;;;;7.57;4.00;;;23.60;37.00;;;;;;6140129;28;80617;-61
2022/02/24 06:46:57;;;;;;;11.40;3.63;;;23.40;38.80;;;;;;6146887;28;81662;-61
2022/02/24 06:49:57;;;;;;;7.18;3.05;;;23.30;40.20;;;;;;6128990;28;80427;-62
2022/02/24 06:52:58;;;;;;;6.13;2.45;;;23.20;40.90;;;;;;6123651;28;80473;-63
2022/02/24 06:55:59;;;;;;;4.68;2.38;;;23.10;41.70;;;;;;6130674;28;81740;-61
2022/02/24 06:58:59;;;;;;;5.85;2.60;;;23.10;41.80;;;;;;6132202;28;80596;-63
2022/02/24 07:02:00;;;;;;;4.45;2.47;;;23.20;42.00;;;;;;6133906;28;82613;-63
2022/02/24 07:05:01;;;;;;;4.72;2.83;;;23.10;42.40;;;;;;6133577;28;80974;-63
2022/02/24 07:08:02;;;;;;;6.50;2.50;;;23.10;42.30;;;;;;6133181;28;80547;-63
2022/02/24 07:11:02;;;;;;;4.28;2.75;;;23.10;42.60;;;;;;6129490;28;80259;-63
2022/02/24 07:14:03;;;;;;;6.10;2.70;;;23.20;42.90;;;;;;6145898;28;80524;-63
2022/02/24 07:17:03;;;;;;;4.38;2.22;;;23.10;43.00;;;;;;6127603;28;80403;-64
2022/02/24 07:20:04;;;;;;;4.53;2.15;;;23.10;43.10;;;;;;6133249;28;81930;-62
2022/02/24 07:23:04;;;;;;;7.55;2.65;;;23.10;42.60;;;;;;6132534;28;80237;-62
2022/02/24 07:26:06;;;;;;;9.25;2.22;;;23.10;43.50;;;;;;6142086;28;82262;-63
2022/02/24 07:29:06;;;;;;;4.13;2.40;;;23.10;43.70;;;;;;6143846;28;80506;-63
2022/02/24 07:32:07;;;;;;;11.85;3.30;;;23.10;43.40;;;;;;6135571;28;80548;-64
2022/02/24 07:35:07;;;;;;;3.25;2.00;;;23.20;43.60;;;;;;6137779;28;80562;-63
2022/02/24 07:38:08;;;;;;;4.72;2.53;;;23.20;43.90;;;;;;6133669;28;80526;-64
2022/02/24 07:41:08;;;;;;;5.32;2.63;;;23.40;43.70;;;;;;6151427;28;81345;-64
2022/02/24 07:44:09;;;;;;;6.43;2.30;;;23.60;43.50;;;;;;6150622;28;81769;-63
2022/02/24 07:47:09;;;;;;;5.97;2.63;;;23.70;42.70;;;;;;6137967;28;80394;-63
2022/02/24 07:50:13;;;;;;;5.20;2.50;;;23.80;42.10;;;;;;6130842;28;80536;-63
2022/02/24 07:53:14;;;;;;;7.78;3.33;;;23.90;42.10;;;;;;6124856;28;82024;-62
2022/02/24 07:56:14;;;;;;;6.35;2.80;;;24.00;42.10;;;;;;6137180;28;80257;-61
2022/02/24 07:59:15;;;;;;;9.18;3.35;;;24.00;41.70;;;;;;6129273;28;81789;-62
2022/02/24 08:02:15;;;;;;;6.13;3.17;;;24.00;41.60;;;;;;6129793;28;80771;-61
2022/02/24 08:05:16;;;;;;;6.18;2.88;;;24.10;41.60;;;;;;6124932;28;84928;-64
2022/02/24 08:08:17;;;;;;;5.82;2.90;;;24.10;41.00;;;;;;6127190;28;81513;-64
2022/02/24 08:11:17;;;;;;;5.03;2.80;;;24.20;41.50;;;;;;6131733;28;80706;-63
2022/02/24 08:14:18;;;;;;;6.78;2.95;;;24.20;41.20;;;;;;6131495;28;80575;-64
2022/02/24 08:17:18;;;;;;;6.13;2.75;;;24.30;40.70;;;;;;6131413;28;80960;-64
2022/02/24 08:20:19;;;;;;;4.00;2.72;;;24.20;40.80;;;;;;6131231;28;83087;-64
2022/02/24 08:23:19;;;;;;;6.20;3.25;;;24.30;40.90;;;;;;6124147;28;81893;-65
2022/02/24 08:26:20;;;;;;;9.40;3.40;;;24.40;40.60;;;;;;6123641;28;83380;-63
2022/02/24 08:29:20;;;;;;;7.45;2.95;;;24.40;40.60;;;;;;6129916;28;80827;-64
2022/02/24 08:32:21;;;;;;;7.20;4.03;;;24.40;41.30;;;;;;6131332;28;84259;-64
2022/02/24 08:35:24;;;;;;;6.85;2.92;;;24.40;40.40;;;;;;6134296;28;80893;-63
2022/02/24 08:38:24;;;;;;;6.45;2.85;;;24.50;40.30;;;;;;6135373;28;80555;-63
2022/02/24 08:41:25;;;;;;;7.60;3.15;;;24.50;39.90;;;;;;6142405;28;80931;-61
2022/02/24 08:44:25;;;;;;;8.50;3.47;;;24.60;40.30;;;;;;6137142;28;81922;-61
2022/02/24 08:47:26;;;;;;;9.15;3.10;;;24.60;40.00;;;;;;6145691;28;81416;-64
2022/02/24 08:50:27;;;;;;;6.70;2.90;;;24.60;39.70;;;;;;6154539;28;80497;-64
2022/02/24 08:53:27;;;;;;;7.80;3.63;;;24.70;40.80;;;;;;6133515;28;80898;-62
2022/02/24 08:56:28;;;;;;;6.35;3.20;;;24.70;40.30;;;;;;6135208;28;80362;-61
2022/02/24 08:59:29;;;;;;;31.60;3.90;;;24.70;40.20;;;;;;6146408;28;81529;-63
2022/02/24 09:02:29;;;;;;;7.18;3.45;;;24.70;39.80;;;;;;6121845;28;80862;-64
2022/02/24 09:05:30;;;;;;;8.95;3.10;;;24.70;39.60;;;;;;6118453;28;80509;-62
2022/02/24 09:08:30;;;;;;;6.55;3.65;;;24.80;39.30;;;;;;6136382;28;81162;-63
2022/02/24 09:11:31;;;;;;;6.13;3.65;;;24.80;38.90;;;;;;6123292;28;80190;-63
2022/02/24 09:14:31;;;;;;;7.38;3.88;;;24.90;38.70;;;;;;6119957;28;80668;-63
2022/02/24 09:17:32;;;;;;;6.35;3.33;;;24.90;38.50;;;;;;6126214;28;80720;-63
2022/02/24 09:20:33;;;;;;;6.15;2.97;;;24.90;38.10;;;;;;6123224;28;81998;-62
2022/02/24 09:23:34;;;;;;;6.38;3.35;;;25.00;38.00;;;;;;6136425;28;80825;-63
2022/02/24 09:26:36;;;;;;;6.47;2.60;;;25.00;38.00;;;;;;6133301;28;80375;-63
2022/02/24 09:29:39;;;;;;;7.03;2.85;;;25.10;38.40;;;;;;6124675;28;82496;-65
2022/02/24 09:32:39;;;;;;;6.55;3.30;;;25.10;38.60;;;;;;6129355;28;80568;-63
2022/02/24 09:35:40;;;;;;;4.93;3.08;;;25.10;38.60;;;;;;6125022;28;80391;-63
2022/02/24 09:38:41;;;;;;;8.98;3.03;;;25.20;38.90;;;;;;6123331;28;82546;-62
2022/02/24 09:41:41;;;;;;;7.78;3.58;;;25.30;38.90;;;;;;6148870;28;80390;-64
2022/02/24 09:44:42;;;;;;;8.60;3.38;;;25.30;38.80;;;;;;6126349;28;80470;-64
2022/02/24 09:47:42;;;;;;;6.13;3.47;;;25.30;38.60;;;;;;6119419;28;81932;-64
2022/02/24 09:50:43;;;;;;;6.60;3.28;;;25.40;38.80;;;;;;6144066;28;80171;-62
2022/02/24 09:53:43;;;;;;;4.32;2.60;;;25.40;38.70;;;;;;6139032;28;81211;-63
2022/02/24 09:56:44;;;;;;;4.95;3.22;;;25.40;38.70;;;;;;6120981;28;80616;-63
2022/02/24 09:59:44;;;;;;;6.53;3.00;;;25.50;38.40;;;;;;6124845;28;80177;-64
2022/02/24 10:02:45;;;;;;;5.25;2.72;;;25.50;38.40;;;;;;6124649;28;80347;-63
2022/02/24 10:05:46;;;;;;;5.75;3.08;;;25.60;38.20;;;;;;6136383;28;80880;-64
2022/02/24 10:08:46;;;;;;;6.63;3.30;;;25.60;38.20;;;;;;6126884;28;80338;-63
2022/02/24 10:11:47;;;;;;;7.25;3.03;;;25.70;38.20;;;;;;6123256;28;81426;-63
2022/02/24 10:14:47;;;;;;;5.90;2.85;;;25.80;38.30;;;;;;6125610;28;81430;-63
2022/02/24 10:17:48;;;;;;;8.45;3.10;;;25.80;38.20;;;;;;6116302;28;80990;-63
2022/02/24 10:20:49;;;;;;;8.38;3.55;;;25.80;38.10;;;;;;6127459;28;80857;-63
2022/02/24 10:23:52;;;;;;;5.25;3.10;;;25.90;38.10;;;;;;6136304;28;80732;-64
2022/02/24 10:26:52;;;;;;;5.43;2.85;;;25.80;37.90;;;;;;6136963;28;81116;-63
2022/02/24 10:29:53;;;;;;;6.07;2.80;;;25.90;37.90;;;;;;6129744;28;80443;-64
2022/02/24 10:32:55;;;;;;;4.82;2.80;;;25.90;38.10;;;;;;6120189;28;80971;-63
2022/02/24 10:35:56;;;;;;;4.15;2.70;;;26.00;38.00;;;;;;6124714;28;80350;-63
2022/02/24 10:38:58;;;;;;;4.85;2.97;;;26.00;37.80;;;;;;6122169;28;82010;-60
2022/02/24 10:41:58;;;;;;;4.75;2.58;;;26.10;37.70;;;;;;6125823;28;82129;-66
2022/02/24 10:44:59;;;;;;;4.88;2.72;;;26.10;37.80;;;;;;6139398;28;83565;-63
2022/02/24 10:47:59;;;;;;;3.45;2.33;;;26.10;37.50;;;;;;6121666;28;80584;-63
2022/02/24 10:51:01;;;;;;;5.07;2.25;;;26.10;37.50;;;;;;6118044;28;81180;-63
2022/02/24 10:54:02;;;;;;;3.47;2.08;;;26.20;37.60;;;;;;6122216;28;80931;-64
2022/02/24 10:57:02;;;;;;;3.65;2.25;;;26.20;37.50;;;;;;6121637;28;81748;-66
2022/02/24 11:00:03;;;;;;;3.78;2.20;;;26.20;37.70;;;;;;6127702;28;80505;-66
2022/02/24 11:03:04;;;;;;;3.60;2.47;;;26.20;37.40;;;;;;6129168;28;80562;-66
2022/02/24 11:06:04;;;;;;;3.83;2.53;;;26.30;37.30;;;;;;6119118;28;80317;-66
2022/02/24 11:09:05;;;;;;;4.45;2.15;;;26.30;37.50;;;;;;6127460;28;81453;-65
2022/02/24 11:12:06;;;;;;;5.72;2.10;;;26.30;37.30;;;;;;6123704;28;81294;-65
2022/02/24 11:15:06;;;;;;;3.90;2.08;;;26.30;37.40;;;;;;6134082;28;80322;-61
2022/02/24 11:18:07;;;;;;;6.20;2.40;;;26.40;37.50;;;;;;6134190;28;81990;-61
2022/02/24 11:21:12;;;;;;;2.58;1.80;;;26.40;37.40;;;;;;6145508;28;80869;-60
2022/02/24 11:24:12;;;;;;;5.17;2.13;;;26.40;37.40;;;;;;6134547;28;81392;-63
2022/02/24 11:27:13;;;;;;;5.88;2.45;;;26.40;37.40;;;;;;6136712;28;80569;-63
2022/02/24 11:30:13;;;;;;;2.78;1.98;;;26.40;37.30;;;;;;6138094;28;81831;-64
2022/02/24 11:33:14;;;;;;;4.05;1.95;;;26.40;37.10;;;;;;6148556;28;81879;-63
2022/02/24 11:36:16;;;;;;;3.08;2.08;;;26.40;37.00;;;;;;6152324;28;81244;-61
2022/02/24 11:39:17;;;;;;;2.17;1.83;;;26.40;37.20;;;;;;6133350;28;80475;-63
2022/02/24 11:42:17;;;;;;;5.13;2.35;;;26.40;37.00;;;;;;6143431;28;80257;-63
2022/02/24 11:45:18;;;;;;;4.05;2.53;;;26.40;36.80;;;;;;6152493;28;81409;-63
2022/02/24 11:48:18;;;;;;;2.83;2.10;;;26.50;37.00;;;;;;6130980;28;80875;-63
2022/02/24 11:51:19;;;;;;;3.80;2.35;;;26.50;37.00;;;;;;6125874;28;80800;-63
2022/02/24 11:54:20;;;;;;;5.22;2.55;;;26.50;37.60;;;;;;6130339;28;80396;-64
2022/02/24 11:57:20;;;;;;;3.10;2.42;;;26.50;36.80;;;;;;6126957;28;81535;-63
2022/02/24 12:00:21;;;;;;;3.10;2.30;;;26.50;36.90;;;;;;6125608;28;80625;-64
2022/02/24 12:03:21;;;;;;;4.43;2.53;;;26.50;37.10;;;;;;6139056;28;81795;-64
2022/02/24 12:06:22;;;;;;;3.47;2.30;;;26.50;37.40;;;;;;6135758;28;80611;-64
2022/02/24 12:09:22;;;;;;;8.10;3.00;;;26.50;37.50;;;;;;6151238;28;81650;-64
2022/02/24 12:12:23;;;;;;;8.75;3.28;;;26.60;37.70;;;;;;6132726;28;81402;-64
2022/02/24 12:15:24;;;;;;;7.88;3.22;;;26.60;38.10;;;;;;6146892;28;80567;-63
2022/02/24 12:18:24;;;;;;;4.85;2.70;;;26.60;38.20;;;;;;6150314;28;80227;-63
2022/02/24 12:21:25;;;;;;;4.30;3.10;;;26.60;38.40;;;;;;6137799;28;83627;-64
2022/02/24 12:24:25;;;;;;;5.22;3.17;;;26.60;38.70;;;;;;6126776;28;80645;-63
2022/02/24 12:27:29;;;;;;;5.78;3.30;;;26.60;38.80;;;;;;6133302;28;80493;-63
2022/02/24 12:30:30;;;;;;;4.68;2.88;;;26.60;38.90;;;;;;6127252;28;80379;-63
2022/02/24 12:33:31;;;;;;;5.30;2.78;;;26.60;39.00;;;;;;6149369;28;83418;-65
2022/02/24 12:36:31;;;;;;;4.50;2.83;;;26.60;39.10;;;;;;6129974;28;81468;-64
2022/02/24 12:39:34;;;;;;;6.22;2.72;;;26.60;39.00;;;;;;6127183;28;81145;-64
2022/02/24 12:42:34;;;;;;;3.38;2.22;;;26.60;38.80;;;;;;6130536;28;80111;-64
2022/02/24 12:45:35;;;;;;;5.53;2.45;;;26.60;38.40;;;;;;6136732;28;81614;-65
2022/02/24 12:48:36;;;;;;;5.30;2.40;;;26.60;38.20;;;;;;6137180;28;80703;-63
2022/02/24 12:51:36;;;;;;;5.30;2.40;;;26.60;38.90;;;;;;6137706;28;81198;-63
2022/02/24 12:54:37;;;;;;;4.32;2.58;;;26.60;38.80;;;;;;6123967;28;81301;-62
2022/02/24 12:57:37;;;;;;;16.85;2.50;;;26.70;39.00;;;;;;6141444;28;80343;-62
2022/02/24 13:00:38;;;;;;;4.15;2.63;;;26.70;39.00;;;;;;6123819;28;81089;-62
2022/02/24 13:03:38;;;;;;;3.65;2.10;;;26.70;39.20;;;;;;6135055;28;80512;-62
2022/02/24 13:06:39;;;;;;;3.70;2.20;;;26.70;39.30;;;;;;6136339;28;80663;-62
2022/02/24 13:09:43;;;;;;;4.30;2.10;;;26.70;39.20;;;;;;6132523;28;81611;-63
2022/02/24 13:12:44;;;;;;;3.83;2.53;;;26.70;39.10;;;;;;6134981;28;80895;-63
2022/02/24 13:15:44;;;;;;;4.28;2.13;;;26.70;39.20;;;;;;6130759;28;80452;-64
2022/02/24 13:18:45;;;;;;;4.70;2.10;;;26.70;39.10;;;;;;6137866;28;80422;-64
2022/02/24 13:21:45;;;;;;;2.55;1.92;;;26.70;39.00;;;;;;6135740;28;82402;-64
2022/02/24 13:24:46;;;;;;;4.32;2.20;;;26.70;38.60;;;;;;6127701;28;80482;-65
2022/02/24 13:27:46;;;;;;;2.50;2.20;;;26.70;38.70;;;;;;6138665;28;80551;-61
2022/02/24 13:30:47;;;;;;;4.15;2.30;;;26.70;38.70;;;;;;6144131;28;81633;-59
2022/02/24 13:33:47;;;;;;;8.85;3.05;;;26.60;38.30;;;;;;6132790;28;80599;-64
2022/02/24 13:36:48;;;;;;;3.85;2.58;;;26.60;38.40;;;;;;6128221;28;80865;-62
2022/02/24 13:39:48;;;;;;;3.95;2.25;;;26.60;38.80;;;;;;6137462;28;81974;-60
2022/02/24 13:42:49;;;;;;;8.98;2.75;;;26.60;38.30;;;;;;6126761;28;81657;-60
2022/02/24 13:45:49;;;;;;;7.72;2.67;;;26.60;39.40;;;;;;6129468;28;80475;-64
2022/02/24 13:48:50;;;;;;;4.15;2.50;;;26.60;38.90;;;;;;6147714;28;80578;-63
2022/02/24 13:51:50;;;;;;;7.63;2.90;;;26.50;39.30;;;;;;6136392;28;80334;-62
2022/02/24 13:54:51;;;;;;;5.53;2.40;;;26.50;39.70;;;;;;6134629;28;80561;-62
2022/02/24 13:57:52;;;;;;;3.28;2.25;;;26.40;39.50;;;;;;6141698;28;86755;-61
2022/02/24 14:00:52;;;;;;;4.13;2.35;;;26.40;39.40;;;;;;6144922;28;80858;-64
2022/02/24 14:03:53;;;;;;;5.35;2.25;;;26.30;38.90;;;;;;6133488;28;81503;-65
2022/02/24 14:06:53;;;;;;;7.93;2.78;;;26.20;38.90;;;;;;6129333;28;80402;-66
2022/02/24 14:09:54;;;;;;;6.28;2.28;;;26.10;39.10;;;;;;6129283;28;80712;-65
2022/02/24 14:12:55;;;;;;;3.80;2.25;;;26.10;39.30;;;;;;6130636;28;81127;-64
2022/02/24 14:15:55;;;;;;;7.72;2.17;;;26.00;39.00;;;;;;6147781;28;81398;-67
2022/02/24 14:18:56;;;;;;;12.90;3.83;;;26.00;39.10;;;;;;6134828;28;81140;-65
2022/02/24 14:21:56;;;;;;;12.05;3.75;;;26.00;39.00;;;;;;6132205;28;81298;-65
2022/02/24 14:24:57;;;;;;;10.85;3.47;;;26.00;39.00;;;;;;6133783;28;80600;-65
2022/02/24 14:27:57;;;;;;;12.32;3.03;;;26.00;39.10;;;;;;6135428;28;81322;-65
2022/02/24 14:30:58;;;;;;;6.05;2.60;;;25.90;39.70;;;;;;6137796;28;81017;-65
2022/02/24 14:34:00;;;;;;;8.90;3.00;;;25.90;38.90;;;;;;6126005;28;80567;-65
2022/02/24 14:37:00;;;;;;;8.13;2.85;;;25.90;38.60;;;;;;6135604;28;82617;-64
2022/02/24 14:40:01;;;;;;;4.40;2.50;;;25.80;38.40;;;;;;6136319;28;80338;-65
2022/02/24 14:43:01;;;;;;;6.97;2.78;;;25.80;38.20;;;;;;6140803;28;82091;-66
2022/02/24 14:46:02;;;;;;;4.38;2.40;;;25.80;38.10;;;;;;6137289;28;80457;-64
2022/02/24 14:49:02;;;;;;;5.00;2.67;;;25.70;38.00;;;;;;6136209;28;80355;-64
2022/02/24 14:52:03;;;;;;;4.50;2.67;;;25.70;37.50;;;;;;6123728;28;81449;-65
2022/02/24 14:55:03;;;;;;;4.10;2.45;;;25.60;37.20;;;;;;6135895;28;80444;-66
2022/02/24 14:58:04;;;;;;;5.97;2.55;;;25.60;36.40;;;;;;6135949;28;81885;-66
2022/02/24 15:01:05;;;;;;;4.72;2.75;;;25.50;36.20;;;;;;6130747;28;81426;-66
2022/02/24 15:04:05;;;;;;;4.43;2.28;;;25.50;35.80;;;;;;6133436;28;81402;-66
2022/02/24 15:07:06;;;;;;;3.40;2.30;;;25.50;35.40;;;;;;6130904;28;80992;-65
2022/02/24 15:10:07;;;;;;;4.78;2.53;;;25.40;35.90;;;;;;6134081;28;80860;-65
2022/02/24 15:13:07;;;;;;;2.83;1.92;;;25.40;35.70;;;;;;6136839;28;80474;-66
2022/02/24 15:16:07;;;;;;;2.78;2.25;;;25.30;35.70;;;;;;6124555;28;81682;-66
2022/02/24 15:19:08;;;;;;;5.00;2.38;;;25.30;35.30;;;;;;6132430;28;80608;-67
2022/02/24 15:22:08;;;;;;;3.38;2.00;;;25.30;35.30;;;;;;6133757;28;80299;-65
2022/02/24 15:25:11;;;;;;;3.70;1.92;;;25.30;35.00;;;;;;6136532;28;80687;-65
2022/02/24 15:28:11;;;;;;;3.55;2.38;;;25.20;34.90;;;;;;6121194;28;80408;-66
2022/02/24 15:31:12;;;;;;;5.00;2.22;;;25.10;34.70;;;;;;6135173;28;81617;-68
2022/02/24 15:34:13;;;;;;;5.78;2.33;;;25.20;34.30;;;;;;6137183;28;80700;-65